createdAt,value
2018-12-19T00:00:01.855Z,56.93
2018-12-19T00:02:34.085Z,57.83
2018-12-19T00:05:05.239Z,56.93
2018-12-19T00:07:37.549Z,61.93
2018-12-19T00:10:08.016Z,56.53
2018-12-19T00:12:42.910Z,53.43
2018-12-19T00:15:15.206Z,56.87
2018-12-19T00:17:47.298Z,59.47
2018-12-19T00:20:21.146Z,58.30
2018-12-19T00:22:53.686Z,59.40
2018-12-19T00:25:25.495Z,57.13
2018-12-19T00:27:57.942Z,48.97
2018-12-19T00:30:30.245Z,56.13
2018-12-19T00:33:02.147Z,54.93
2018-12-19T00:35:32.468Z,49.63
2018-12-19T00:38:04.165Z,49.17
2018-12-19T00:40:36.375Z,50.33
2018-12-19T00:43:08.544Z,53.20
2018-12-19T00:45:40.767Z,53.83
2018-12-19T00:48:12.978Z,55.90
2018-12-19T00:50:45.209Z,60.27
2018-12-19T00:53:17.409Z,61.57
2018-12-19T00:55:49.373Z,50.50
2018-12-19T00:58:23.865Z,49.67
2018-12-19T01:00:55.742Z,64.50
2018-12-19T01:03:27.988Z,57.53
2018-12-19T01:06:00.170Z,61.37
2018-12-19T01:08:30.486Z,66.00
2018-12-19T01:11:02.862Z,64.53
2018-12-19T01:13:35.005Z,64.60
2018-12-19T01:16:07.404Z,62.50
2018-12-19T01:18:39.671Z,71.13
2018-12-19T01:21:14.812Z,61.03
2018-12-19T01:23:46.916Z,66.47
2018-12-19T01:26:19.187Z,79.63
2018-12-19T01:28:51.606Z,66.23
2018-12-19T01:31:24.946Z,74.53
2018-12-19T01:33:55.268Z,66.63
2018-12-19T01:36:27.218Z,77.63
2018-12-19T01:38:59.536Z,64.87
2018-12-19T01:41:31.599Z,75.70
2018-12-19T01:44:04.118Z,58.97
2018-12-19T01:46:36.525Z,62.93
2018-12-19T01:49:08.581Z,65.63
2018-12-19T01:51:40.717Z,74.47
2018-12-19T01:54:11.159Z,69.77
2018-12-19T01:56:43.316Z,92.93
2018-12-19T01:59:17.710Z,85.90
2018-12-19T02:01:49.920Z,75.47
2018-12-19T02:04:21.761Z,73.73
2018-12-19T02:06:52.603Z,80.37
2018-12-19T02:09:28.901Z,73.97
2018-12-19T02:11:59.123Z,70.27
2018-12-19T02:14:31.160Z,64.40
2018-12-19T02:17:03.278Z,72.93
2018-12-19T02:19:35.238Z,70.87
2018-12-19T02:22:10.016Z,262.67
2018-12-19T02:24:41.752Z,81.47
2018-12-19T02:27:14.212Z,83.03
2018-12-19T02:29:46.534Z,81.87
2018-12-19T02:32:18.529Z,75.53
2018-12-19T02:34:50.805Z,73.93
2018-12-19T02:37:23.210Z,77.07
2018-12-19T02:39:55.660Z,72.30
2018-12-19T02:42:27.765Z,71.37
2018-12-19T02:45:00.216Z,67.40
2018-12-19T02:47:46.676Z,69.43
2018-12-19T02:50:18.731Z,71.23
2018-12-19T02:52:49.092Z,70.50
2018-12-19T02:55:21.308Z,66.20
2018-12-19T02:57:53.753Z,69.07
2018-12-19T03:00:25.970Z,69.10
2018-12-19T03:02:58.281Z,64.47
2018-12-19T03:05:30.715Z,64.07
2018-12-19T03:08:02.752Z,64.50
2018-12-19T03:10:34.977Z,54.30
2018-12-19T03:13:07.031Z,75.07
2018-12-19T03:15:39.433Z,72.10
2018-12-19T03:18:11.313Z,67.13
2018-12-19T03:20:43.695Z,59.87
2018-12-19T03:23:15.751Z,55.33
2018-12-19T03:25:48.081Z,65.33
2018-12-19T03:28:20.054Z,54.60
2018-12-19T03:30:50.250Z,52.30
2018-12-19T03:33:22.719Z,54.83
2018-12-19T03:35:53.043Z,43.53
2018-12-19T03:38:25.336Z,50.30
2018-12-19T03:40:57.564Z,45.20
2018-12-19T03:43:29.886Z,48.07
2018-12-19T03:46:02.377Z,46.73
2018-12-19T03:48:40.049Z,43.30
2018-12-19T03:51:11.739Z,41.90
2018-12-19T03:53:41.742Z,41.50
2018-12-19T03:56:14.348Z,38.97
2018-12-19T03:58:46.624Z,42.60
2018-12-19T04:01:18.351Z,43.80
2018-12-19T04:06:48.306Z,44.20
2018-12-19T04:09:18.785Z,40.93
2018-12-19T04:11:50.987Z,41.10
2018-12-19T04:14:23.305Z,42.33
2018-12-19T04:16:55.719Z,43.63
2018-12-19T04:19:27.805Z,46.13
2018-12-19T04:21:58.229Z,39.97
2018-12-19T04:24:30.466Z,40.47
2018-12-19T04:27:00.694Z,43.17
2018-12-19T04:29:33.609Z,40.73
2018-12-19T04:32:04.132Z,35.77
2018-12-19T04:34:36.671Z,39.80
2018-12-19T04:37:06.770Z,39.47
2018-12-19T04:39:38.932Z,89.17
2018-12-19T04:42:09.240Z,37.80
2018-12-19T04:44:41.265Z,35.53
2018-12-19T04:47:13.288Z,37.70
2018-12-19T04:49:43.729Z,37.80
2018-12-19T04:52:15.969Z,36.80
2018-12-19T04:54:47.615Z,35.27
2018-12-19T04:57:19.757Z,42.00
2018-12-19T04:59:51.903Z,39.97
2018-12-19T05:02:24.094Z,39.03
2018-12-19T05:04:56.184Z,34.47
2018-12-19T05:07:28.874Z,34.57
2018-12-19T05:10:03.451Z,34.30
2018-12-19T05:12:35.184Z,34.70
2018-12-19T05:15:09.251Z,35.43
2018-12-19T05:17:41.711Z,33.43
2018-12-19T05:20:13.892Z,31.67
2018-12-19T05:22:46.785Z,31.83
2018-12-19T05:25:24.984Z,32.57
2018-12-19T05:28:05.406Z,28.73
2018-12-19T05:30:36.060Z,29.27
2018-12-19T05:33:08.242Z,29.87
2018-12-19T05:35:41.590Z,29.27
2018-12-19T05:38:14.022Z,26.40
2018-12-19T05:40:46.460Z,26.07
2018-12-19T05:43:16.688Z,24.70
2018-12-19T05:45:46.829Z,27.50
2018-12-19T05:48:18.856Z,27.40
2018-12-19T05:50:50.988Z,29.80
2018-12-19T05:53:24.895Z,27.17
2018-12-19T05:55:56.506Z,26.10
2018-12-19T05:58:26.805Z,24.57
2018-12-19T06:00:59.305Z,27.83
2018-12-19T06:03:31.465Z,25.97
2018-12-19T06:06:03.474Z,27.03
2018-12-19T06:08:35.644Z,22.60
2018-12-19T06:11:07.870Z,23.57
2018-12-19T06:13:39.913Z,21.97
2018-12-19T06:16:12.038Z,21.47
2018-12-19T06:18:44.224Z,19.10
2018-12-19T06:21:16.637Z,18.80
2018-12-19T06:23:46.968Z,19.03
2018-12-19T06:26:19.215Z,19.70
2018-12-19T06:28:51.449Z,23.57
2018-12-19T06:31:23.831Z,21.23
2018-12-19T06:33:56.472Z,18.30
2018-12-19T06:36:28.615Z,19.47
2018-12-19T06:39:01.777Z,20.37
2018-12-19T06:41:33.805Z,19.80
2018-12-19T06:44:05.811Z,19.90
2018-12-19T06:46:38.422Z,19.60
2018-12-19T06:49:10.100Z,15.53
2018-12-19T06:51:42.124Z,16.47
2018-12-19T06:54:14.364Z,16.73
2018-12-19T06:56:46.608Z,14.70
2018-12-19T06:59:18.885Z,17.40
2018-12-19T07:01:51.116Z,20.53
2018-12-19T07:04:23.571Z,13.87
2018-12-19T07:06:55.889Z,16.17
2018-12-19T07:09:27.919Z,15.33
2018-12-19T07:12:00.127Z,17.30
2018-12-19T07:14:41.071Z,15.03
2018-12-19T07:17:14.326Z,13.97
2018-12-19T07:19:48.964Z,15.73
2018-12-19T07:22:25.559Z,18.23
2018-12-19T07:24:57.054Z,17.83
2018-12-19T07:27:29.870Z,15.60
2018-12-19T07:30:02.506Z,17.90
2018-12-19T07:32:34.861Z,14.47
2018-12-19T07:35:13.932Z,14.50
2018-12-19T07:40:46.150Z,17.07
2018-12-19T07:43:36.944Z,11.60
2018-12-19T07:46:10.845Z,14.73
2018-12-19T07:48:46.548Z,14.13
2018-12-19T07:51:28.521Z,13.20
2018-12-19T07:54:16.313Z,11.77
2018-12-19T07:56:52.303Z,12.40
2018-12-19T07:59:37.394Z,13.97
2018-12-19T08:02:33.780Z,14.27
2018-12-19T08:05:25.953Z,13.63
2018-12-19T08:08:08.012Z,14.20
2018-12-19T08:13:43.508Z,14.87
2018-12-19T08:19:28.448Z,12.90
2018-12-19T08:28:04.392Z,15.73
2018-12-19T08:30:55.217Z,15.10
2018-12-19T08:33:48.607Z,18.60
2018-12-19T08:36:36.870Z,16.47
2018-12-19T08:39:44.779Z,14.67
2018-12-19T08:43:02.872Z,16.27
2018-12-19T08:46:24.150Z,13.27
2018-12-19T09:07:55.725Z,15.97
2018-12-19T09:10:31.403Z,16.00
2018-12-19T09:13:02.886Z,11.70
2018-12-19T09:15:53.030Z,13.83
2018-12-19T09:18:26.322Z,15.33
2018-12-19T09:21:00.737Z,15.00
2018-12-19T09:23:33.510Z,17.60
2018-12-19T09:26:05.452Z,14.77
2018-12-19T09:28:37.699Z,13.80
2018-12-19T09:31:09.617Z,13.97
2018-12-19T09:33:41.898Z,14.10
2018-12-19T09:36:15.231Z,16.80
2018-12-19T09:38:45.502Z,14.37
2018-12-19T09:41:17.681Z,17.03
2018-12-19T09:43:50.135Z,14.57
2018-12-19T09:46:21.940Z,17.93
2018-12-19T09:48:56.290Z,13.70
2018-12-19T09:51:28.334Z,15.20
2018-12-19T09:54:00.368Z,17.13
2018-12-19T09:56:32.789Z,15.27
2018-12-19T09:59:03.085Z,17.33
2018-12-19T10:01:35.218Z,19.20
2018-12-19T10:04:07.503Z,18.43
2018-12-19T10:06:39.231Z,16.83
2018-12-19T10:09:14.960Z,18.13
2018-12-19T10:11:47.520Z,16.60
2018-12-19T10:14:22.149Z,17.67
2018-12-19T10:16:54.808Z,16.47
2018-12-19T10:19:26.780Z,16.37
2018-12-19T10:21:59.769Z,15.83
2018-12-19T10:24:36.732Z,14.87
2018-12-19T10:27:08.752Z,15.70
2018-12-19T10:29:40.973Z,13.50
2018-12-19T10:32:13.110Z,13.67
2018-12-19T10:34:45.855Z,13.87
2018-12-19T10:37:17.679Z,14.23
2018-12-19T10:39:50.252Z,18.30
2018-12-19T10:42:23.182Z,15.57
2018-12-19T10:44:55.998Z,15.60
2018-12-19T10:47:27.665Z,14.23
2018-12-19T10:49:59.921Z,13.97
2018-12-19T10:52:32.500Z,14.53
2018-12-19T10:55:05.558Z,14.43
2018-12-19T10:57:35.974Z,14.60
2018-12-19T11:00:15.896Z,14.67
2018-12-19T11:02:49.040Z,13.10
2018-12-19T11:05:20.780Z,13.97
2018-12-19T11:07:56.218Z,15.23
2018-12-19T11:10:28.763Z,12.87
2018-12-19T11:13:01.240Z,14.30
2018-12-19T11:18:05.741Z,14.40
2018-12-19T11:20:37.560Z,13.17
2018-12-19T11:23:09.615Z,13.07
2018-12-19T11:25:42.632Z,13.93
2018-12-19T11:28:15.079Z,11.80
2018-12-19T11:30:47.457Z,12.87
2018-12-19T11:33:19.467Z,13.07
2018-12-19T11:35:51.742Z,12.47
2018-12-19T11:38:24.088Z,11.73
2018-12-19T11:40:56.359Z,12.37
2018-12-19T11:43:28.735Z,13.23
2018-12-19T11:46:06.768Z,13.67
2018-12-19T11:48:39.404Z,12.47
2018-12-19T11:51:11.660Z,13.10
2018-12-19T11:53:45.201Z,15.03
2018-12-19T11:56:17.471Z,14.83
2018-12-19T11:58:53.962Z,14.63
2018-12-19T12:01:27.006Z,13.37
2018-12-19T12:03:59.604Z,14.43
2018-12-19T12:06:31.647Z,16.07
2018-12-19T12:09:07.066Z,14.33
2018-12-19T12:11:45.443Z,15.47
2018-12-19T12:14:11.540Z,16.00
2018-12-19T12:16:46.230Z,13.43
2018-12-19T12:19:22.749Z,14.40
2018-12-19T12:22:01.324Z,16.07
2018-12-19T12:24:36.359Z,14.33
2018-12-19T12:27:11.696Z,14.30
2018-12-19T12:29:46.475Z,17.90
2018-12-19T12:32:23.145Z,16.47
2018-12-19T12:35:01.879Z,15.93
2018-12-19T12:38:20.787Z,16.57
2018-12-19T12:43:57.379Z,16.77
2018-12-19T12:46:30.527Z,17.87
2018-12-19T12:49:04.794Z,18.37
2018-12-19T12:51:37.465Z,18.30
2018-12-19T12:54:10.277Z,18.07
2018-12-19T12:56:42.691Z,20.50
2018-12-19T12:59:15.610Z,19.43
2018-12-19T13:04:41.517Z,17.73
2018-12-19T13:07:14.051Z,19.00
2018-12-19T13:09:46.363Z,19.70
2018-12-19T13:12:18.647Z,19.37
2018-12-19T13:14:52.964Z,19.87
2018-12-19T13:17:24.751Z,19.43
2018-12-19T13:19:56.683Z,21.50
2018-12-19T13:22:29.988Z,19.67
2018-12-19T13:25:04.953Z,24.07
2018-12-19T13:27:37.414Z,19.30
2018-12-19T13:30:11.666Z,22.50
2018-12-19T13:32:44.408Z,26.87
2018-12-19T13:35:16.188Z,22.40
2018-12-19T13:37:48.519Z,22.57
2018-12-19T13:40:20.486Z,21.57
2018-12-19T13:42:53.204Z,26.33
2018-12-19T13:45:25.694Z,23.63
2018-12-19T13:47:57.967Z,25.33
2018-12-19T13:50:32.207Z,25.23
2018-12-19T13:53:04.282Z,24.40
2018-12-19T13:55:37.096Z,25.33
2018-12-19T13:58:09.775Z,25.63
2018-12-19T14:00:41.739Z,23.07
2018-12-19T14:03:14.096Z,20.93
2018-12-19T14:05:46.144Z,24.23
2018-12-19T14:08:16.448Z,29.07
2018-12-19T14:10:48.920Z,23.50
2018-12-19T14:13:23.643Z,28.07
2018-12-19T14:15:56.249Z,22.47
2018-12-19T14:19:32.142Z,23.30
2018-12-19T14:22:04.424Z,25.73
2018-12-19T14:24:36.501Z,26.37
2018-12-19T14:27:08.791Z,21.40
2018-12-19T14:29:41.573Z,22.23
2018-12-19T14:32:13.841Z,24.80
2018-12-19T14:34:45.768Z,25.57
2018-12-19T14:37:18.011Z,18.73
2018-12-19T14:39:49.999Z,28.40
2018-12-19T14:42:21.839Z,27.00
2018-12-19T14:44:55.329Z,22.83
2018-12-19T14:47:27.236Z,23.93
2018-12-19T14:49:59.551Z,24.23
2018-12-19T14:52:31.573Z,24.97
2018-12-19T14:55:03.683Z,23.23
2018-12-19T14:57:35.738Z,22.67
2018-12-19T15:00:11.472Z,29.50
2018-12-19T15:02:44.561Z,24.80
2018-12-19T15:05:20.842Z,24.83
2018-12-19T15:07:53.674Z,28.47
2018-12-19T15:10:25.785Z,25.87
2018-12-19T15:12:57.796Z,27.93
2018-12-19T15:15:30.575Z,29.47
2018-12-19T15:18:04.697Z,25.77
2018-12-19T15:20:38.954Z,26.50
2018-12-19T15:23:11.022Z,20.57
2018-12-19T15:25:43.166Z,21.33
2018-12-19T15:28:14.915Z,36.93
2018-12-19T15:30:47.402Z,28.97
2018-12-19T15:33:19.672Z,28.83
2018-12-19T15:36:05.803Z,29.67
2018-12-19T15:38:37.661Z,33.13
2018-12-19T15:41:10.215Z,29.27
2018-12-19T15:43:42.407Z,29.93
2018-12-19T15:46:14.533Z,28.53
2018-12-19T15:48:46.601Z,26.77
2018-12-19T15:51:19.425Z,28.50
2018-12-19T15:53:51.280Z,28.30
2018-12-19T15:56:23.536Z,30.60
2018-12-19T15:58:55.850Z,30.00
2018-12-19T16:01:28.826Z,31.63
2018-12-19T16:04:01.087Z,31.83
2018-12-19T16:06:33.606Z,27.93
2018-12-19T16:09:07.923Z,28.00
2018-12-19T16:11:40.956Z,27.43
2018-12-19T16:14:13.656Z,29.43
2018-12-19T16:16:45.732Z,29.17
2018-12-19T16:19:18.039Z,29.80
2018-12-19T16:21:50.018Z,24.03
2018-12-19T16:24:26.718Z,28.07
2018-12-19T16:27:00.501Z,25.73
2018-12-19T16:29:33.192Z,28.67
2018-12-19T16:32:05.037Z,26.80
2018-12-19T16:34:35.144Z,30.23
2018-12-19T16:37:12.676Z,28.23
2018-12-19T16:39:45.161Z,25.07
2018-12-19T16:42:19.728Z,28.93
2018-12-19T16:44:51.884Z,29.70
2018-12-19T16:47:28.398Z,30.40
2018-12-19T16:50:00.951Z,27.17
2018-12-19T16:55:26.900Z,27.73
2018-12-19T16:57:59.007Z,29.03
2018-12-19T17:00:31.448Z,28.73
2018-12-19T17:03:03.273Z,28.17
2018-12-19T17:05:35.733Z,28.63
2018-12-19T17:08:07.793Z,27.07
2018-12-19T17:10:39.904Z,30.63
2018-12-19T17:13:12.156Z,28.47
2018-12-19T17:15:44.431Z,29.67
2018-12-19T17:18:17.251Z,28.57
2018-12-19T17:20:49.309Z,28.37
2018-12-19T17:23:21.705Z,30.00
2018-12-19T17:25:53.804Z,29.53
2018-12-19T17:28:26.191Z,29.97
2018-12-19T17:30:58.194Z,30.80
2018-12-19T17:33:30.628Z,34.60
2018-12-19T17:36:03.155Z,29.97
2018-12-19T17:38:35.269Z,29.53
2018-12-19T17:41:07.327Z,30.20
2018-12-19T17:43:39.529Z,33.30
2018-12-19T17:46:12.060Z,34.67
2018-12-19T17:48:46.408Z,32.33
2018-12-19T17:51:18.356Z,35.10
2018-12-19T17:53:50.588Z,41.93
2018-12-19T17:56:22.596Z,46.40
2018-12-19T17:58:54.873Z,34.70
2018-12-19T18:01:28.596Z,39.87
2018-12-19T18:04:00.508Z,31.20
2018-12-19T18:06:32.563Z,33.57
2018-12-19T18:11:58.836Z,28.53
2018-12-19T18:14:29.344Z,35.93
2018-12-19T18:17:01.496Z,30.77
2018-12-19T18:19:33.336Z,30.30
2018-12-19T18:22:05.689Z,33.93
2018-12-19T18:24:35.676Z,50.43
2018-12-19T18:27:08.384Z,32.93
2018-12-19T18:29:40.112Z,31.53
2018-12-19T18:32:12.576Z,33.30
2018-12-19T18:34:44.561Z,30.47
2018-12-19T18:37:19.407Z,32.83
2018-12-19T18:39:52.181Z,29.70
2018-12-19T18:42:25.076Z,33.27
2018-12-19T18:44:59.700Z,33.33
2018-12-19T18:47:41.736Z,37.43
2018-12-19T18:53:01.582Z,33.00
2018-12-19T18:55:36.188Z,30.07
2018-12-19T18:58:09.335Z,33.43
2018-12-19T19:00:43.866Z,34.63
2018-12-19T19:03:16.252Z,28.07
2018-12-19T19:05:48.377Z,30.83
2018-12-19T19:08:20.524Z,33.40
2018-12-19T19:10:53.027Z,50.73
2018-12-19T19:13:24.930Z,26.77
2018-12-19T19:15:57.005Z,35.43
2018-12-19T19:18:29.391Z,30.80
2018-12-19T19:21:01.764Z,30.00
2018-12-19T19:23:36.125Z,32.33
2018-12-19T19:29:02.023Z,31.77
2018-12-19T19:31:34.367Z,35.00
2018-12-19T19:34:06.368Z,33.53
2018-12-19T19:36:39.476Z,28.87
2018-12-19T19:39:09.981Z,26.00
2018-12-19T19:41:41.886Z,31.47
2018-12-19T19:44:14.038Z,32.37
2018-12-19T19:46:46.489Z,29.67
2018-12-19T19:49:18.751Z,31.97
2018-12-19T19:51:51.123Z,33.60
2018-12-19T19:54:23.370Z,32.07
2018-12-19T19:56:55.836Z,31.37
2018-12-19T19:59:28.196Z,33.17
2018-12-19T20:02:00.413Z,35.47
2018-12-19T20:04:32.552Z,32.43
2018-12-19T20:07:05.133Z,34.90
2018-12-19T20:09:37.520Z,33.70
2018-12-19T20:12:09.800Z,30.73
2018-12-19T20:14:42.116Z,31.97
2018-12-19T20:17:18.088Z,34.67
2018-12-19T20:19:50.525Z,30.97
2018-12-19T20:22:23.161Z,33.90
2018-12-19T20:24:55.307Z,30.77
2018-12-19T20:27:30.536Z,33.30
2018-12-19T20:30:02.585Z,33.30
2018-12-19T20:32:34.719Z,27.10
2018-12-19T20:35:09.542Z,33.10
2018-12-19T20:37:41.281Z,35.53
2018-12-19T20:40:19.324Z,34.90
2018-12-19T20:45:46.299Z,33.50
2018-12-19T20:48:19.842Z,33.53
2018-12-19T20:50:54.120Z,34.47
2018-12-19T20:53:26.326Z,26.10
2018-12-19T20:56:03.845Z,34.80
2018-12-19T20:58:36.864Z,32.47
2018-12-19T21:01:09.870Z,32.53
2018-12-19T21:03:46.553Z,34.77
2018-12-19T21:06:18.432Z,32.37
2018-12-19T21:08:48.905Z,34.57
2018-12-19T21:11:21.447Z,33.27
2018-12-19T21:13:53.615Z,32.53
2018-12-19T21:18:34.645Z,34.47
2018-12-19T21:21:07.277Z,38.57
2018-12-19T21:23:42.687Z,36.20
2018-12-19T21:26:17.154Z,34.60
2018-12-19T21:28:49.097Z,36.70
2018-12-19T21:31:26.028Z,39.70
2018-12-19T21:34:10.236Z,32.77
2018-12-19T21:36:53.365Z,32.70
2018-12-19T21:39:37.247Z,32.63
2018-12-19T21:42:15.139Z,35.03
2018-12-19T21:44:48.665Z,37.53
2018-12-19T21:47:23.035Z,38.30
2018-12-19T21:49:54.977Z,36.27
2018-12-19T21:52:27.226Z,37.93
2018-12-19T21:54:59.565Z,40.10
2018-12-19T21:57:37.271Z,35.77
2018-12-19T22:03:07.955Z,39.17
2018-12-19T22:05:40.894Z,33.30
2018-12-19T22:08:13.098Z,37.53
2018-12-19T22:10:45.743Z,37.90
2018-12-19T22:13:18.718Z,35.07
2018-12-19T22:15:52.184Z,37.90
2018-12-19T22:18:30.463Z,36.87
2018-12-19T22:21:03.009Z,33.00
2018-12-19T22:23:35.588Z,40.47
2018-12-19T22:26:07.910Z,40.50
2018-12-19T22:28:45.128Z,36.37
2018-12-19T22:31:16.976Z,39.57
2018-12-19T22:33:48.975Z,38.53
2018-12-19T22:36:19.851Z,37.57
2018-12-19T22:38:51.891Z,35.40
2018-12-19T22:41:23.766Z,40.07
2018-12-19T22:43:57.233Z,37.50
2018-12-19T22:46:29.097Z,40.10
2018-12-19T22:49:00.980Z,36.33
2018-12-19T22:51:35.465Z,40.33
2018-12-19T22:54:10.136Z,36.83
2018-12-19T22:56:43.165Z,35.97
2018-12-19T22:59:16.698Z,37.40
2018-12-19T23:01:53.532Z,40.77
2018-12-19T23:04:25.799Z,37.37
2018-12-19T23:06:57.525Z,41.60
2018-12-19T23:09:32.237Z,40.33
2018-12-19T23:12:04.179Z,37.40
2018-12-19T23:14:38.628Z,37.87
2018-12-19T23:17:28.226Z,36.17
2018-12-19T23:20:02.863Z,38.17
2018-12-19T23:22:34.783Z,40.20
2018-12-19T23:25:07.941Z,34.70
2018-12-19T23:27:40.444Z,37.47
2018-12-19T23:30:14.056Z,37.83
2018-12-19T23:32:47.009Z,35.10
2018-12-19T23:35:20.875Z,35.47
2018-12-19T23:37:53.430Z,39.07
2018-12-19T23:40:25.659Z,34.83
2018-12-19T23:42:58.742Z,42.07
2018-12-19T23:45:30.768Z,41.40
2018-12-19T23:48:03.223Z,39.77
2018-12-19T23:50:34.922Z,40.27
2018-12-19T23:53:07.311Z,40.40
2018-12-19T23:55:39.932Z,38.93
2018-12-19T23:58:12.343Z,42.30
